Flippin, Kentucky
Current Conditions -  °F | °C
As of 6:55 AM on Saturday 25 Oct 2014 (Local Time) from KGLW Reporting Station
Clear Clear  
Wind Chill: 42°   Ceiling: Unl
Heat Index: 42°   Visibility: 7mi
Dew Point: 42°   Wind: 3mph
Humidity: 100%   Direction: 130°SE
Pressure: 30.05"   Gusts: NA
Location:  36.7279°N, 85.6843°W
Report Text: KGLW 251155Z AUTO 13003KT 7SM CLR 05/05 A3005 RMK AO2 T00540054 10071 20051
Loading
Personal Weather Stations






























Interactive Weather Map
Tropical Storm Tracking
New forecast layout! Learn more

10-Day Weather Forecast

Advertisements
Track Severe Weather on mobile